Time;durP1;ratioP1;P1;durP2;ratioP2;P2;SDS_P1;SDS_P2;PMS_P1;PMS_P2;Temp;Humidity;BMP_temperature;BMP_pressure;BME280_temperature;BME280_humidity;BME280_pressure;Samples;Min_cycle;Max_cycle;Signal;HPM_P1;HPM_P2
2023/06/07 00:00:10;;;;;;;3.50;3.20;;;20.00;63.60;;;;;;5018010;28;20221;-71
2023/06/07 00:02:38;;;;;;;3.73;3.43;;;19.90;63.60;;;;;;5008762;28;20646;-70
2023/06/07 00:05:05;;;;;;;4.60;4.20;;;19.90;63.60;;;;;;5009227;28;20457;-70
2023/06/07 00:07:32;;;;;;;3.90;3.60;;;19.80;63.70;;;;;;5002344;28;20740;-71
2023/06/07 00:10:00;;;;;;;3.93;3.63;;;19.80;63.80;;;;;;5009098;28;20461;-68
2023/06/07 00:12:26;;;;;;;3.67;3.43;;;19.80;64.00;;;;;;5019920;28;20469;-70
2023/06/07 00:14:52;;;;;;;4.30;3.63;;;19.70;64.20;;;;;;5010155;28;20229;-71
2023/06/07 00:17:18;;;;;;;4.33;3.73;;;19.60;64.10;;;;;;5008899;28;20224;-71
2023/06/07 00:19:43;;;;;;;4.80;3.80;;;19.40;64.60;;;;;;5014495;28;20454;-72
2023/06/07 00:22:12;;;;;;;3.63;3.33;;;19.40;65.00;;;;;;4991094;28;20855;-72
2023/06/07 00:24:38;;;;;;;3.67;3.37;;;19.30;65.00;;;;;;4999599;28;20233;-72
2023/06/07 00:27:04;;;;;;;4.40;4.00;;;19.40;65.10;;;;;;5018724;28;20440;-71
2023/06/07 00:29:30;;;;;;;3.93;3.50;;;19.50;64.90;;;;;;5008164;28;20457;-72
2023/06/07 00:31:56;;;;;;;4.03;3.40;;;19.50;64.60;;;;;;5013679;28;20607;-72
2023/06/07 00:34:22;;;;;;;4.47;4.07;;;19.40;65.00;;;;;;5012994;28;20222;-72
2023/06/07 00:36:48;;;;;;;3.50;3.20;;;19.40;64.70;;;;;;5008678;28;20225;-72
2023/06/07 00:39:13;;;;;;;4.33;3.57;;;19.20;65.00;;;;;;5006505;28;20226;-72
2023/06/07 00:41:39;;;;;;;3.87;3.57;;;19.00;65.30;;;;;;5007830;28;20739;-72
2023/06/07 00:44:05;;;;;;;3.90;3.60;;;19.10;65.70;;;;;;5010675;28;20217;-72
2023/06/07 00:46:32;;;;;;;4.50;4.10;;;19.10;66.00;;;;;;5008069;28;20360;-71
2023/06/07 00:48:58;;;;;;;5.00;4.37;;;19.10;65.80;;;;;;5017133;28;20456;-72
2023/06/07 00:51:27;;;;;;;4.10;3.70;;;19.10;65.70;;;;;;5010206;28;20469;-72
2023/06/07 00:53:55;;;;;;;4.07;3.70;;;19.10;65.90;;;;;;5007695;28;20968;-71
2023/06/07 00:56:21;;;;;;;4.10;3.60;;;19.10;65.70;;;;;;4995572;28;20464;-72
2023/06/07 00:58:47;;;;;;;4.00;3.60;;;19.00;65.40;;;;;;5005350;28;20456;-71
2023/06/07 01:01:12;;;;;;;4.80;3.90;;;18.90;65.80;;;;;;4992683;28;20464;-71
2023/06/07 01:03:38;;;;;;;6.10;4.10;;;18.90;66.10;;;;;;4991223;28;20261;-72
2023/06/07 01:06:05;;;;;;;4.63;3.43;;;18.80;66.40;;;;;;5005022;28;20858;-72
2023/06/07 01:08:32;;;;;;;3.93;3.47;;;18.60;66.10;;;;;;4990590;28;20475;-72
2023/06/07 01:11:00;;;;;;;4.40;4.00;;;18.40;67.20;;;;;;4990939;28;20461;-72
2023/06/07 01:13:26;;;;;;;4.30;3.90;;;18.50;67.20;;;;;;4988444;28;20496;-71
2023/06/07 01:15:52;;;;;;;8.70;4.10;;;18.70;66.80;;;;;;5005881;28;20531;-72
2023/06/07 01:18:19;;;;;;;5.00;3.83;;;18.80;66.60;;;;;;4992495;28;20449;-72
2023/06/07 01:20:50;;;;;;;4.53;3.60;;;18.80;66.50;;;;;;5007495;28;20657;-72
2023/06/07 01:23:27;;;;;;;4.30;3.90;;;18.80;66.50;;;;;;4992688;28;20507;-72
2023/06/07 01:25:55;;;;;;;3.60;3.30;;;18.70;66.10;;;;;;5008769;28;20449;-72
2023/06/07 01:28:21;;;;;;;4.83;3.60;;;18.60;66.60;;;;;;4991954;28;20496;-72
2023/06/07 01:30:48;;;;;;;3.77;3.47;;;18.70;66.70;;;;;;5015441;28;20453;-71
2023/06/07 01:33:16;;;;;;;4.83;4.40;;;18.80;66.40;;;;;;5005000;28;20465;-71
2023/06/07 01:35:44;;;;;;;3.60;3.30;;;18.70;66.20;;;;;;5001661;28;20999;-71
2023/06/07 01:38:12;;;;;;;3.93;3.47;;;18.60;66.90;;;;;;5007714;28;20556;-71
2023/06/07 01:40:41;;;;;;;4.23;3.93;;;18.20;67.30;;;;;;5007023;28;20449;-72
2023/06/07 01:43:08;;;;;;;3.80;3.50;;;18.00;67.90;;;;;;5008412;28;20789;-71
2023/06/07 01:45:35;;;;;;;3.60;3.30;;;18.20;68.10;;;;;;5003611;28;20557;-72
2023/06/07 01:48:01;;;;;;;3.97;3.67;;;18.40;67.90;;;;;;5007881;28;20540;-71
2023/06/07 01:50:27;;;;;;;4.10;3.60;;;18.50;67.60;;;;;;5012984;28;20520;-72
2023/06/07 01:52:52;;;;;;;4.30;4.00;;;18.60;67.30;;;;;;5007057;28;20488;-71
2023/06/07 01:55:19;;;;;;;4.03;3.50;;;18.60;66.60;;;;;;4989620;28;20230;-72
2023/06/07 01:57:53;;;;;;;3.73;3.40;;;18.70;66.90;;;;;;5005693;28;20279;-71
2023/06/07 02:00:35;;;;;;;3.90;3.50;;;18.70;67.00;;;;;;5007518;28;20475;-72
2023/06/07 02:03:16;;;;;;;4.03;3.63;;;18.60;66.80;;;;;;5005402;28;20457;-72
2023/06/07 02:05:48;;;;;;;5.77;4.20;;;18.60;67.10;;;;;;4989961;28;20460;-71
2023/06/07 02:08:34;;;;;;;4.40;4.03;;;18.60;67.10;;;;;;5007013;28;20559;-71
2023/06/07 02:11:02;;;;;;;4.13;3.63;;;18.60;67.20;;;;;;5002402;28;21063;-72
2023/06/07 02:13:32;;;;;;;7.70;3.90;;;18.60;67.20;;;;;;5007748;28;21059;-72
2023/06/07 02:15:58;;;;;;;4.00;3.60;;;18.60;67.50;;;;;;5001641;28;20491;-71
2023/06/07 02:18:27;;;;;;;3.57;3.27;;;18.50;67.20;;;;;;5006987;28;20496;-72
2023/06/07 02:20:53;;;;;;;4.13;3.53;;;18.50;67.40;;;;;;5004944;28;20233;-73
2023/06/07 02:23:21;;;;;;;5.50;4.07;;;18.40;68.00;;;;;;5007218;28;20457;-71
2023/06/07 02:25:46;;;;;;;4.37;3.97;;;18.40;67.80;;;;;;5005130;28;20979;-72
2023/06/07 02:28:12;;;;;;;3.97;3.67;;;18.40;67.90;;;;;;5006618;28;20514;-72
2023/06/07 02:30:38;;;;;;;4.57;4.17;;;18.30;67.80;;;;;;5006567;28;20218;-71
2023/06/07 02:33:05;;;;;;;3.97;3.60;;;18.30;68.10;;;;;;5007781;28;20276;-71
2023/06/07 02:35:31;;;;;;;4.47;3.47;;;18.30;68.20;;;;;;5007152;28;20341;-72
2023/06/07 02:37:56;;;;;;;4.00;3.60;;;18.30;68.10;;;;;;5006199;28;20464;-71
2023/06/07 02:40:22;;;;;;;5.23;3.57;;;18.30;68.20;;;;;;5006563;28;20299;-71
2023/06/07 02:42:48;;;;;;;4.03;3.67;;;18.30;68.00;;;;;;5006749;28;20259;-72
2023/06/07 02:45:15;;;;;;;4.13;3.83;;;18.20;68.20;;;;;;4991006;28;20232;-72
2023/06/07 02:47:41;;;;;;;5.97;3.83;;;18.20;68.50;;;;;;4987660;28;20504;-72
2023/06/07 02:50:08;;;;;;;4.20;3.80;;;18.20;68.40;;;;;;4991031;28;20540;-72
2023/06/07 02:52:36;;;;;;;3.97;3.67;;;18.20;68.80;;;;;;4984797;28;20458;-72
2023/06/07 02:55:03;;;;;;;4.00;3.60;;;18.20;68.50;;;;;;5006038;28;20461;-72
2023/06/07 02:57:28;;;;;;;4.90;3.60;;;18.20;68.80;;;;;;5003310;28;20526;-72
2023/06/07 02:59:54;;;;;;;7.57;4.10;;;18.10;69.10;;;;;;4989309;28;20880;-71
2023/06/07 03:02:24;;;;;;;4.27;3.47;;;18.10;69.10;;;;;;4991865;28;20233;-72
2023/06/07 03:04:55;;;;;;;5.33;3.90;;;18.10;68.90;;;;;;4992583;28;20496;-72
2023/06/07 03:07:22;;;;;;;4.33;3.93;;;18.10;69.00;;;;;;4988967;28;20461;-72
2023/06/07 03:09:49;;;;;;;4.53;3.93;;;18.10;69.10;;;;;;5012663;28;20515;-73
2023/06/07 03:12:18;;;;;;;8.30;4.60;;;18.00;69.30;;;;;;4990158;28;20548;-72
2023/06/07 03:14:48;;;;;;;4.33;3.93;;;18.00;69.30;;;;;;5004622;28;20457;-72
2023/06/07 03:17:17;;;;;;;4.30;3.90;;;18.00;69.50;;;;;;5007551;28;20445;-70
2023/06/07 03:19:46;;;;;;;4.40;4.00;;;18.00;69.40;;;;;;5005099;28;20883;-72
2023/06/07 03:22:11;;;;;;;4.00;3.70;;;18.00;69.50;;;;;;5007388;28;20576;-71
2023/06/07 03:24:39;;;;;;;3.73;3.43;;;18.00;69.40;;;;;;4989820;28;20225;-72
2023/06/07 03:27:06;;;;;;;4.10;3.70;;;18.00;69.80;;;;;;4991149;28;20460;-72
2023/06/07 03:29:32;;;;;;;4.13;3.70;;;18.00;69.70;;;;;;5006129;28;20299;-73
2023/06/07 03:31:58;;;;;;;4.57;3.50;;;18.00;69.60;;;;;;4990738;28;20452;-72
2023/06/07 03:34:26;;;;;;;4.40;4.00;;;18.00;69.50;;;;;;5004060;28;20464;-72
2023/06/07 03:36:52;;;;;;;5.10;3.53;;;18.00;69.60;;;;;;4998151;28;20542;-71
2023/06/07 03:39:18;;;;;;;4.50;4.10;;;18.00;69.60;;;;;;4995720;28;20453;-72
2023/06/07 03:41:44;;;;;;;3.97;3.67;;;18.00;69.60;;;;;;4981307;28;20844;-72
2023/06/07 03:44:14;;;;;;;4.10;3.70;;;18.00;69.40;;;;;;4984450;28;20471;-71
2023/06/07 03:46:41;;;;;;;5.20;3.80;;;18.00;69.60;;;;;;4996952;28;20468;-72
2023/06/07 03:49:07;;;;;;;6.17;4.23;;;18.00;69.40;;;;;;4987131;28;20209;-72
2023/06/07 03:51:33;;;;;;;4.77;3.77;;;17.90;69.80;;;;;;4998728;28;21025;-72
2023/06/07 03:54:00;;;;;;;8.27;4.03;;;18.00;69.90;;;;;;5004272;28;20214;-71
2023/06/07 03:56:27;;;;;;;4.60;4.20;;;17.90;70.00;;;;;;5005132;28;20550;-72
2023/06/07 03:58:54;;;;;;;7.97;4.67;;;17.90;70.50;;;;;;5002770;28;20492;-71
2023/06/07 04:01:25;;;;;;;4.60;3.73;;;17.90;70.50;;;;;;4999474;28;20499;-71
2023/06/07 04:03:52;;;;;;;4.77;4.20;;;17.90;70.60;;;;;;4983907;28;20465;-71
2023/06/07 04:06:20;;;;;;;4.50;4.10;;;17.90;70.60;;;;;;4980738;28;20544;-72
2023/06/07 04:08:47;;;;;;;5.60;4.27;;;17.90;70.80;;;;;;5001124;28;20465;-72
2023/06/07 04:11:13;;;;;;;5.03;4.47;;;17.90;71.20;;;;;;5004922;28;20469;-70
2023/06/07 04:13:42;;;;;;;5.00;4.33;;;17.80;71.10;;;;;;4999218;28;20986;-72
2023/06/07 04:16:07;;;;;;;5.97;3.80;;;17.80;71.70;;;;;;5004018;28;20485;-72
2023/06/07 04:18:33;;;;;;;5.40;3.90;;;17.80;72.10;;;;;;4998556;28;20473;-72
2023/06/07 04:20:59;;;;;;;4.17;3.77;;;17.90;72.40;;;;;;5002189;28;20221;-72
2023/06/07 04:23:25;;;;;;;4.20;3.90;;;17.90;72.50;;;;;;4985044;28;20247;-73
2023/06/07 04:25:54;;;;;;;5.23;3.80;;;17.90;71.40;;;;;;4983397;28;20459;-72
2023/06/07 04:28:23;;;;;;;3.83;3.47;;;17.90;71.50;;;;;;5003181;28;20461;-70
2023/06/07 04:30:57;;;;;;;3.70;3.43;;;18.00;72.20;;;;;;4979886;28;20509;-72
2023/06/07 04:33:23;;;;;;;4.00;3.70;;;17.90;72.60;;;;;;4980487;28;20552;-73
2023/06/07 04:35:50;;;;;;;4.33;3.60;;;18.00;72.50;;;;;;4999027;28;20473;-71
2023/06/07 04:38:21;;;;;;;4.43;4.03;;;17.90;71.80;;;;;;5002754;28;20468;-72
2023/06/07 04:40:50;;;;;;;4.00;3.70;;;18.00;72.50;;;;;;4999193;28;20540;-72
2023/06/07 04:43:25;;;;;;;7.07;4.57;;;18.00;72.60;;;;;;5003463;28;21113;-72
2023/06/07 04:45:54;;;;;;;4.00;3.70;;;17.90;72.80;;;;;;4998991;28;20539;-72
2023/06/07 04:48:23;;;;;;;7.43;4.73;;;18.00;72.90;;;;;;4980861;28;20222;-72
2023/06/07 04:50:50;;;;;;;4.70;4.30;;;18.00;73.80;;;;;;4986201;28;20460;-73
2023/06/07 04:53:19;;;;;;;4.27;3.87;;;17.90;74.60;;;;;;5004334;28;20469;-71
2023/06/07 04:55:47;;;;;;;8.40;4.70;;;17.80;75.00;;;;;;4999867;28;20594;-71
2023/06/07 04:58:16;;;;;;;4.87;4.17;;;17.80;75.60;;;;;;5000483;28;20465;-71
2023/06/07 05:00:42;;;;;;;5.73;4.20;;;17.80;75.10;;;;;;5000308;28;20471;-72
2023/06/07 05:03:21;;;;;;;3.60;3.33;;;17.80;75.20;;;;;;5003207;28;20449;-72
2023/06/07 05:05:48;;;;;;;4.80;4.17;;;17.80;75.20;;;;;;4999055;28;20464;-71
2023/06/07 05:08:15;;;;;;;4.30;4.00;;;17.90;75.30;;;;;;5002951;28;20987;-72
2023/06/07 05:10:41;;;;;;;5.20;4.40;;;17.90;75.20;;;;;;4998226;28;20449;-69
2023/06/07 05:13:08;;;;;;;5.10;4.50;;;17.90;75.10;;;;;;4998441;28;20468;-69
2023/06/07 05:15:33;;;;;;;4.53;3.67;;;17.80;75.50;;;;;;4995775;28;20491;-72
2023/06/07 05:18:01;;;;;;;5.50;3.73;;;17.90;75.30;;;;;;4997606;28;21282;-72
2023/06/07 05:20:28;;;;;;;5.33;3.77;;;17.90;75.50;;;;;;5000499;28;20218;-72
2023/06/07 05:22:57;;;;;;;4.37;3.97;;;18.00;75.90;;;;;;5019395;28;20460;-72
2023/06/07 05:25:23;;;;;;;5.13;4.43;;;17.90;75.80;;;;;;4987406;28;20958;-72
2023/06/07 05:27:49;;;;;;;6.20;4.73;;;17.90;76.60;;;;;;4996368;28;20499;-72
2023/06/07 05:30:19;;;;;;;10.80;7.10;;;17.90;76.90;;;;;;5003432;28;20280;-71
2023/06/07 05:32:45;;;;;;;10.67;6.60;;;18.00;76.70;;;;;;4980012;28;20548;-72
2023/06/07 05:35:11;;;;;;;10.13;6.30;;;18.00;76.50;;;;;;4986972;28;20994;-72
2023/06/07 05:37:39;;;;;;;5.80;4.70;;;18.00;77.00;;;;;;4984050;28;20464;-72
2023/06/07 05:40:08;;;;;;;5.67;4.77;;;18.00;77.90;;;;;;4997275;28;20890;-70
2023/06/07 05:42:38;;;;;;;6.80;4.03;;;18.00;77.00;;;;;;4998639;28;20544;-71
2023/06/07 05:45:06;;;;;;;6.37;4.40;;;18.10;77.70;;;;;;4992200;28;20468;-71
2023/06/07 05:47:32;;;;;;;9.53;4.77;;;18.00;77.70;;;;;;4995548;28;20475;-72
2023/06/07 05:49:58;;;;;;;5.17;3.87;;;18.00;77.70;;;;;;4984141;28;20542;-71
2023/06/07 05:52:24;;;;;;;9.30;4.10;;;18.10;77.30;;;;;;5004268;28;20232;-72
2023/06/07 05:54:53;;;;;;;4.50;4.10;;;18.10;76.60;;;;;;5008415;28;20217;-72
2023/06/07 05:57:19;;;;;;;5.23;4.07;;;18.20;77.70;;;;;;5003292;28;20216;-72
2023/06/07 05:59:44;;;;;;;5.63;4.23;;;18.20;77.60;;;;;;5005522;28;20461;-71
2023/06/07 06:02:10;;;;;;;4.73;4.10;;;18.20;77.20;;;;;;5010502;28;20271;-72
2023/06/07 06:04:36;;;;;;;4.00;3.70;;;18.20;76.40;;;;;;4990669;28;20811;-72
2023/06/07 06:07:02;;;;;;;4.87;4.03;;;18.30;77.50;;;;;;5009149;28;20256;-72
2023/06/07 06:09:29;;;;;;;4.10;3.70;;;18.30;76.90;;;;;;5007893;28;20520;-72
2023/06/07 06:11:55;;;;;;;7.30;3.90;;;18.30;78.30;;;;;;4987381;28;20464;-73
2023/06/07 06:14:22;;;;;;;4.47;4.03;;;18.30;77.20;;;;;;5010120;28;20468;-72
2023/06/07 06:16:48;;;;;;;4.50;4.10;;;18.40;78.00;;;;;;5008036;28;20468;-72
2023/06/07 06:19:14;;;;;;;4.90;4.40;;;18.40;78.30;;;;;;4991210;28;20473;-72
2023/06/07 06:21:39;;;;;;;7.53;4.13;;;18.40;78.50;;;;;;5008104;28;20230;-72
2023/06/07 06:24:06;;;;;;;4.57;4.17;;;18.40;77.20;;;;;;5013002;28;20585;-72
2023/06/07 06:26:31;;;;;;;4.70;4.30;;;18.40;77.90;;;;;;5006229;28;20226;-72
2023/06/07 06:28:58;;;;;;;4.43;4.03;;;18.50;79.70;;;;;;5003125;28;21012;-72
2023/06/07 06:31:24;;;;;;;5.33;3.87;;;18.50;80.10;;;;;;4999817;28;20213;-73
2023/06/07 06:33:50;;;;;;;4.97;4.20;;;18.60;80.40;;;;;;4997289;28;22105;-72
2023/06/07 06:36:16;;;;;;;4.47;4.07;;;18.60;80.90;;;;;;4986886;28;20480;-70
2023/06/07 06:38:41;;;;;;;4.53;4.13;;;18.70;81.30;;;;;;4998173;28;20238;-70
2023/06/07 06:41:09;;;;;;;4.80;4.33;;;18.70;82.40;;;;;;5002761;28;20514;-68
2023/06/07 06:43:35;;;;;;;5.07;3.93;;;18.80;84.00;;;;;;4999911;28;20225;-70
2023/06/07 06:46:01;;;;;;;8.90;4.60;;;18.80;82.90;;;;;;4997951;28;20465;-71
2023/06/07 06:48:26;;;;;;;8.20;4.40;;;18.90;82.70;;;;;;4997673;28;20472;-72
2023/06/07 06:50:52;;;;;;;5.17;4.30;;;18.90;82.40;;;;;;5000801;28;20610;-71
2023/06/07 06:53:18;;;;;;;4.60;4.20;;;18.90;84.20;;;;;;5000958;28;20562;-71
2023/06/07 06:55:44;;;;;;;7.40;4.20;;;19.00;85.00;;;;;;4981520;28;20313;-71
2023/06/07 06:58:09;;;;;;;4.37;4.07;;;19.10;84.80;;;;;;5002298;28;20371;-72
2023/06/07 07:00:39;;;;;;;4.77;4.27;;;19.10;86.30;;;;;;4983146;28;20357;-71
2023/06/07 07:03:05;;;;;;;4.27;3.90;;;19.20;86.70;;;;;;4982127;28;20217;-72
2023/06/07 07:05:30;;;;;;;4.53;4.13;;;19.30;84.80;;;;;;4999035;28;20491;-71
2023/06/07 07:07:56;;;;;;;4.60;4.20;;;19.40;86.80;;;;;;4993597;28;20596;-70
2023/06/07 07:10:22;;;;;;;5.37;4.47;;;19.50;88.00;;;;;;4992218;28;20612;-71
2023/06/07 07:12:48;;;;;;;4.70;4.30;;;19.50;88.80;;;;;;4999418;28;20229;-71
2023/06/07 07:15:14;;;;;;;5.00;4.53;;;19.70;90.00;;;;;;5000810;28;20235;-70
2023/06/07 07:17:47;;;;;;;6.17;4.77;;;19.80;90.10;;;;;;5001414;28;20313;-72
2023/06/07 07:20:13;;;;;;;5.07;4.57;;;19.90;90.30;;;;;;5004069;28;20794;-72
2023/06/07 07:22:38;;;;;;;4.80;4.40;;;20.00;90.20;;;;;;5003578;28;20472;-72
2023/06/07 07:25:05;;;;;;;5.27;4.63;;;20.20;90.50;;;;;;4990225;28;21999;-72
2023/06/07 07:27:31;;;;;;;4.60;4.20;;;20.30;90.00;;;;;;4986275;28;20320;-71
2023/06/07 07:29:57;;;;;;;5.10;4.70;;;20.40;90.40;;;;;;5004800;28;20895;-72
2023/06/07 07:32:23;;;;;;;5.33;4.20;;;20.40;90.20;;;;;;5002321;28;20214;-72
2023/06/07 07:34:48;;;;;;;8.53;4.50;;;20.50;88.60;;;;;;4997304;28;20693;-72
2023/06/07 07:37:14;;;;;;;5.43;4.50;;;20.60;88.00;;;;;;4988445;28;20264;-72
2023/06/07 07:39:40;;;;;;;5.10;4.60;;;20.70;85.90;;;;;;5001785;28;20595;-72
2023/06/07 07:42:06;;;;;;;5.20;4.80;;;21.00;85.40;;;;;;4990151;28;20221;-72
2023/06/07 07:44:35;;;;;;;5.47;5.03;;;21.00;84.20;;;;;;4985555;28;20237;-72
2023/06/07 07:47:01;;;;;;;4.80;4.50;;;21.20;84.40;;;;;;5006589;28;20452;-72
2023/06/07 07:49:26;;;;;;;4.83;4.43;;;21.20;84.20;;;;;;5005917;28;20469;-72
2023/06/07 07:51:52;;;;;;;5.90;4.83;;;21.20;84.00;;;;;;5007277;28;20221;-72
2023/06/07 07:54:17;;;;;;;4.83;4.43;;;21.10;84.10;;;;;;4990309;28;20249;-72
2023/06/07 07:56:43;;;;;;;5.27;4.80;;;21.20;84.90;;;;;;4992572;28;20283;-73
2023/06/07 07:59:10;;;;;;;6.47;5.70;;;21.40;84.80;;;;;;4994830;28;20232;-71
2023/06/07 08:01:36;;;;;;;5.33;4.93;;;21.60;84.40;;;;;;4995379;28;20221;-72
2023/06/07 08:04:02;;;;;;;5.50;5.00;;;21.60;82.80;;;;;;5009731;28;20468;-72
2023/06/07 08:06:27;;;;;;;6.93;5.00;;;21.60;83.70;;;;;;5011373;28;20287;-72
2023/06/07 08:08:53;;;;;;;5.70;5.17;;;21.80;84.50;;;;;;5003139;28;20226;-72
2023/06/07 08:11:19;;;;;;;5.70;5.20;;;21.90;83.80;;;;;;4995859;28;20726;-72
2023/06/07 08:13:44;;;;;;;5.63;4.40;;;22.00;83.00;;;;;;5009465;28;20229;-73
2023/06/07 08:16:10;;;;;;;6.30;4.93;;;22.20;82.60;;;;;;4991584;28;20236;-72
2023/06/07 08:18:36;;;;;;;5.53;5.13;;;22.30;82.80;;;;;;5007763;28;20236;-72
2023/06/07 08:21:03;;;;;;;5.43;4.90;;;22.50;82.20;;;;;;4990898;28;20456;-73
2023/06/07 08:23:30;;;;;;;5.63;4.97;;;22.60;82.10;;;;;;5007561;28;20272;-71
2023/06/07 08:25:57;;;;;;;5.10;4.70;;;22.60;82.10;;;;;;5007236;28;20461;-73
2023/06/07 08:28:24;;;;;;;6.60;5.50;;;22.50;81.80;;;;;;5007329;28;20460;-73
2023/06/07 08:30:50;;;;;;;5.27;4.77;;;22.60;82.60;;;;;;5004555;28;20848;-72
2023/06/07 08:33:15;;;;;;;5.43;5.03;;;22.90;82.30;;;;;;5007594;28;20456;-73
2023/06/07 08:35:41;;;;;;;6.57;4.67;;;23.00;82.00;;;;;;4989100;28;20225;-73
2023/06/07 08:38:07;;;;;;;5.00;4.50;;;23.10;82.30;;;;;;4985797;28;20301;-74
2023/06/07 08:40:36;;;;;;;5.30;4.90;;;23.10;82.30;;;;;;5006200;28;20224;-72
2023/06/07 08:43:02;;;;;;;6.30;5.80;;;23.30;82.20;;;;;;5005210;28;20448;-73
2023/06/07 08:45:28;;;;;;;5.23;4.83;;;23.50;82.20;;;;;;5005529;28;20519;-72
2023/06/07 08:48:05;;;;;;;5.23;4.83;;;23.60;82.70;;;;;;4992313;28;20283;-72
2023/06/07 08:50:31;;;;;;;5.53;5.13;;;23.70;81.90;;;;;;5007890;28;20271;-73
2023/06/07 08:53:02;;;;;;;5.93;5.50;;;23.70;81.60;;;;;;5016350;28;20464;-73
2023/06/07 08:55:30;;;;;;;5.60;5.17;;;23.70;81.60;;;;;;5007645;28;20223;-73
2023/06/07 08:57:57;;;;;;;5.50;5.10;;;23.80;81.50;;;;;;4991451;28;20505;-73
2023/06/07 09:00:24;;;;;;;5.77;5.30;;;23.90;81.50;;;;;;5006976;28;20468;-72
2023/06/07 09:02:52;;;;;;;9.80;5.80;;;24.00;81.40;;;;;;5005031;28;20453;-73
2023/06/07 09:05:19;;;;;;;6.77;6.03;;;24.00;80.60;;;;;;5007086;28;20460;-73
2023/06/07 09:07:45;;;;;;;7.10;6.50;;;24.00;81.10;;;;;;5000777;28;20482;-73
2023/06/07 09:10:13;;;;;;;5.80;5.17;;;24.20;81.10;;;;;;4990187;28;20564;-72
2023/06/07 09:12:39;;;;;;;6.27;5.77;;;24.30;80.70;;;;;;5005932;28;20222;-73
2023/06/07 09:15:07;;;;;;;7.10;6.40;;;24.40;81.00;;;;;;5006071;28;21132;-72
2023/06/07 09:17:53;;;;;;;6.70;5.97;;;24.50;80.70;;;;;;4993222;28;20820;-72
2023/06/07 09:20:26;;;;;;;6.43;5.80;;;24.80;80.20;;;;;;5008912;28;21089;-73
2023/06/07 09:23:14;;;;;;;8.30;6.10;;;25.00;80.00;;;;;;5000352;28;20463;-72
2023/06/07 09:25:44;;;;;;;6.53;6.03;;;25.00;79.60;;;;;;5001101;28;20472;-73
2023/06/07 09:28:14;;;;;;;6.50;6.00;;;25.20;79.30;;;;;;5007305;28;20478;-73
2023/06/07 09:30:57;;;;;;;9.90;5.70;;;25.20;79.50;;;;;;5004695;28;21252;-74
2023/06/07 09:33:35;;;;;;;5.63;5.20;;;25.10;79.20;;;;;;4998153;28;20460;-73
2023/06/07 09:36:07;;;;;;;8.23;6.70;;;25.40;79.10;;;;;;5006504;28;20575;-73
2023/06/07 09:38:34;;;;;;;6.33;5.90;;;25.60;78.60;;;;;;5010114;28;20453;-73
2023/06/07 09:41:01;;;;;;;8.03;7.37;;;25.60;78.20;;;;;;5000501;28;20468;-73
2023/06/07 09:43:26;;;;;;;6.57;5.97;;;25.80;78.30;;;;;;5008264;28;20456;-73
2023/06/07 09:45:54;;;;;;;7.47;6.87;;;26.00;78.00;;;;;;5004256;28;20810;-73
2023/06/07 09:48:19;;;;;;;7.60;6.10;;;26.10;77.60;;;;;;5007453;28;20261;-73
2023/06/07 09:50:58;;;;;;;8.33;6.27;;;26.10;77.50;;;;;;5002919;28;20475;-73
2023/06/07 09:53:27;;;;;;;7.40;6.80;;;26.20;77.60;;;;;;5001416;28;20260;-73
2023/06/07 09:55:52;;;;;;;7.60;6.37;;;26.40;76.90;;;;;;5002876;28;20464;-73
2023/06/07 09:58:22;;;;;;;6.83;6.17;;;26.60;76.70;;;;;;4987472;28;20831;-74
2023/06/07 10:00:52;;;;;;;6.87;6.23;;;26.60;76.30;;;;;;5008715;28;20268;-74
2023/06/07 10:03:18;;;;;;;7.50;6.77;;;26.80;76.40;;;;;;5003461;28;20691;-73
2023/06/07 10:05:44;;;;;;;6.70;6.20;;;26.70;76.00;;;;;;4991813;28;20895;-73
2023/06/07 10:08:10;;;;;;;6.40;5.93;;;26.70;75.90;;;;;;4991109;28;20484;-73
2023/06/07 10:10:39;;;;;;;8.27;6.00;;;26.60;76.10;;;;;;5006050;28;20580;-74
2023/06/07 10:13:10;;;;;;;7.23;6.53;;;26.70;76.20;;;;;;5003936;28;20461;-74
2023/06/07 10:15:40;;;;;;;6.80;6.20;;;26.90;75.50;;;;;;5003725;28;20265;-74
2023/06/07 10:18:21;;;;;;;7.07;6.60;;;26.80;75.60;;;;;;5000732;28;20217;-73
2023/06/07 10:21:01;;;;;;;7.50;6.80;;;27.00;75.50;;;;;;5004458;28;20585;-73
2023/06/07 10:23:53;;;;;;;7.73;7.03;;;27.10;75.10;;;;;;5004560;28;20213;-73
2023/06/07 10:26:25;;;;;;;6.40;5.80;;;27.20;75.00;;;;;;4988532;28;20249;-74
2023/06/07 10:28:55;;;;;;;7.03;6.37;;;27.00;74.70;;;;;;5008711;28;20229;-74
2023/06/07 10:31:26;;;;;;;7.00;6.40;;;26.80;75.00;;;;;;4997096;28;20220;-73
2023/06/07 10:33:55;;;;;;;7.30;6.80;;;26.80;74.70;;;;;;5001043;28;20600;-72
2023/06/07 10:36:23;;;;;;;7.37;6.87;;;26.90;75.30;;;;;;5003465;28;20226;-73
2023/06/07 10:38:51;;;;;;;6.43;5.82;;;27.00;75.00;;;;;;5007880;28;20257;-73
2023/06/07 10:41:17;;;;;;;7.47;6.80;;;27.20;74.60;;;;;;5004519;28;20217;-73
2023/06/07 10:43:46;;;;;;;7.88;7.10;;;27.10;73.80;;;;;;5004756;28;20221;-73
2023/06/07 10:46:23;;;;;;;7.57;6.97;;;27.20;73.90;;;;;;4990915;28;20223;-73
2023/06/07 10:48:49;;;;;;;6.88;6.43;;;27.00;73.40;;;;;;5003244;28;23019;-73
2023/06/07 10:51:15;;;;;;;7.63;6.93;;;27.00;73.50;;;;;;5014017;28;20213;-73
2023/06/07 10:53:48;;;;;;;7.32;6.68;;;27.30;73.70;;;;;;5006632;28;20276;-73
2023/06/07 10:56:29;;;;;;;6.43;5.88;;;27.40;73.00;;;;;;4990191;28;20233;-74
2023/06/07 10:59:16;;;;;;;7.22;6.63;;;27.50;73.20;;;;;;5005682;28;20235;-72
2023/06/07 11:01:54;;;;;;;7.20;6.47;;;27.50;73.00;;;;;;5009363;28;20228;-73
2023/06/07 11:04:36;;;;;;;7.93;7.22;;;27.60;73.20;;;;;;4989445;28;20225;-73
2023/06/07 11:07:18;;;;;;;7.80;7.10;;;27.60;73.40;;;;;;4989685;28;20323;-73
2023/06/07 11:09:50;;;;;;;8.63;7.82;;;27.80;73.40;;;;;;4993776;28;20231;-73
2023/06/07 11:12:34;;;;;;;9.02;8.15;;;27.70;72.70;;;;;;5009470;28;20224;-73
2023/06/07 11:15:30;;;;;;;7.32;6.72;;;27.60;73.00;;;;;;5011570;28;20263;-73
2023/06/07 11:18:00;;;;;;;8.40;7.35;;;27.70;73.00;;;;;;5014521;28;20224;-73
2023/06/07 11:20:43;;;;;;;8.25;7.43;;;27.80;72.40;;;;;;5009349;28;20218;-73
2023/06/07 11:23:28;;;;;;;8.02;6.80;;;28.00;72.60;;;;;;5003955;28;20271;-73
2023/06/07 11:26:06;;;;;;;7.93;7.32;;;28.10;72.60;;;;;;5007857;28;20590;-73
2023/06/07 11:28:37;;;;;;;6.43;6.00;;;27.90;71.40;;;;;;4984771;28;20257;-74
2023/06/07 11:31:08;;;;;;;7.05;5.95;;;27.90;71.50;;;;;;5005953;28;20219;-74
2023/06/07 11:33:34;;;;;;;7.45;6.80;;;28.00;70.90;;;;;;5009364;28;20696;-73
2023/06/07 11:36:01;;;;;;;6.38;5.78;;;27.80;71.30;;;;;;5008114;28;20591;-73
2023/06/07 11:38:26;;;;;;;7.15;6.55;;;28.00;71.00;;;;;;5020965;28;20225;-72
2023/06/07 11:40:53;;;;;;;7.32;6.72;;;28.00;70.60;;;;;;5016758;28;20264;-73
2023/06/07 11:43:27;;;;;;;6.85;6.35;;;28.00;70.80;;;;;;5007770;28;20307;-73
2023/06/07 11:45:57;;;;;;;7.68;7.07;;;28.10;71.00;;;;;;5016522;28;20299;-73
2023/06/07 11:48:27;;;;;;;7.25;6.75;;;28.10;70.70;;;;;;5011282;28;20313;-73
2023/06/07 11:50:53;;;;;;;6.97;6.38;;;27.90;70.30;;;;;;5018152;28;20749;-73
2023/06/07 11:53:20;;;;;;;6.95;6.25;;;28.00;70.20;;;;;;5012411;28;20213;-73
2023/06/07 11:55:46;;;;;;;6.90;6.30;;;28.10;70.30;;;;;;5012136;28;20213;-73
2023/06/07 11:58:12;;;;;;;7.50;6.90;;;28.20;70.40;;;;;;5012351;28;20224;-74
2023/06/07 12:00:40;;;;;;;8.13;7.50;;;28.30;70.30;;;;;;5009787;28;20225;-74
2023/06/07 12:03:08;;;;;;;6.95;6.45;;;28.20;70.40;;;;;;4993808;28;20209;-74
2023/06/07 12:05:37;;;;;;;7.75;7.15;;;28.30;70.50;;;;;;5012211;28;20233;-74
2023/06/07 12:08:10;;;;;;;8.60;7.80;;;28.40;70.40;;;;;;5013576;28;20271;-74
2023/06/07 12:10:36;;;;;;;8.05;7.40;;;28.50;70.80;;;;;;5014428;28;20281;-74
2023/06/07 12:13:09;;;;;;;7.30;6.60;;;28.60;70.50;;;;;;5007705;28;20221;-73
2023/06/07 12:15:41;;;;;;;7.65;7.15;;;28.60;69.90;;;;;;5006171;28;20229;-74
2023/06/07 12:18:09;;;;;;;6.90;6.35;;;28.70;69.50;;;;;;4988044;28;20299;-73
2023/06/07 12:20:35;;;;;;;6.47;5.97;;;28.50;69.60;;;;;;4997563;28;20275;-73
2023/06/07 12:23:05;;;;;;;7.03;6.32;;;28.30;68.80;;;;;;5003450;28;20220;-73
2023/06/07 12:25:31;;;;;;;6.97;6.47;;;28.20;68.30;;;;;;4995221;28;20226;-73
2023/06/07 12:27:57;;;;;;;7.82;7.13;;;28.40;68.70;;;;;;5005572;28;20217;-74
2023/06/07 12:30:32;;;;;;;7.60;7.00;;;28.40;68.80;;;;;;4986736;28;20248;-74
2023/06/07 12:33:01;;;;;;;7.25;6.55;;;28.50;69.40;;;;;;5008419;28;20351;-74
2023/06/07 12:35:39;;;;;;;8.43;7.82;;;28.50;70.00;;;;;;5012611;28;20226;-74
2023/06/07 12:38:06;;;;;;;7.30;6.80;;;28.40;70.50;;;;;;5006059;28;20504;-73
2023/06/07 12:40:33;;;;;;;8.27;7.68;;;28.30;70.30;;;;;;5014227;28;20209;-73
2023/06/07 12:42:59;;;;;;;8.32;7.55;;;28.50;71.00;;;;;;4995228;28;20291;-73
2023/06/07 12:45:25;;;;;;;10.18;7.57;;;28.60;70.50;;;;;;5008536;28;20221;-73
2023/06/07 12:47:51;;;;;;;7.03;6.53;;;28.60;71.10;;;;;;5008820;28;21028;-74
2023/06/07 12:50:16;;;;;;;8.05;7.45;;;28.60;70.30;;;;;;5010627;28;20232;-74